Ana Sayfa
METAR-TAF:

METAR-TAF

Havaalanları :

Terrell Municipal Airport

Terrell, Teksas, Amerika Birleşik Devletleri

Enlem: 32-42-49N, Boylam: 096-16-06W, yükseklik: 144 m

Güncel hava durumu gözlemi

Rapor saat 02:53 UTC de 52 dakika önce yapıldı.
Rüzgar güneydan 6 kt
Sıcaklık 8°C
Nem 49%
Basınç 1024 hPa
Görüş mesafesi: 16.1 km
Açık gökyüzü

METAR: KTRL 280253Z AUTO 18006KT 10SM CLR 08/M02 A3025 RMK AO2 SLP245 T00781022 51003

Saat: 21:45 (03:45 UTC)


TAF: eksik

4.000'den fazla havaalanı için hava durumu gözlemleri ve tahminleri (METAR ve TAF raporları).

Kullanılabilir istasyonlar harita üzerinde sarı ve kırmızı noktalarla gösterilir.

İstasyonun adını görmek için fareyi noktanın üzerinde gezdirin.

Sonrasında hava gözlem ve tahminlerini görmek için tıklayın.

Haritayı değiştirmek için: yaklaştırmak için siyah artı işaretli yeşil düğmeye ve uzaklaştırmak için de eksi işaretli düğmeye hızla tıklayın; bitişik haritalar için yeşil okları kullanın.


METAR-TAF: